createdAt,value
2019-02-24T00:01:27.066Z,-1.58
2019-02-24T00:03:56.486Z,-1.47
2019-02-24T00:06:26.362Z,-1.40
2019-02-24T00:08:55.819Z,-1.33
2019-02-24T00:11:24.708Z,-1.37
2019-02-24T00:13:53.483Z,-1.37
2019-02-24T00:16:22.303Z,-1.37
2019-02-24T00:18:51.424Z,-1.51
2019-02-24T00:21:20.188Z,-1.48
2019-02-24T00:23:48.960Z,-1.39
2019-02-24T00:26:18.055Z,-1.34
2019-02-24T00:28:47.893Z,-1.42
2019-02-24T00:31:17.476Z,-1.44
2019-02-24T00:33:46.275Z,-1.46
2019-02-24T00:36:15.424Z,-1.43
2019-02-24T00:38:44.424Z,-1.42
2019-02-24T00:41:13.805Z,-1.66
2019-02-24T00:43:42.934Z,-1.74
2019-02-24T00:46:11.754Z,-2.00
2019-02-24T00:48:40.531Z,-2.18
2019-02-24T00:51:09.299Z,-2.22
2019-02-24T00:53:38.106Z,-2.31
2019-02-24T00:56:06.873Z,-2.24
2019-02-24T00:58:35.633Z,-2.31
2019-02-24T01:01:04.992Z,-2.30
2019-02-24T01:03:34.464Z,-2.07
2019-02-24T01:06:04.143Z,-1.99
2019-02-24T01:08:33.654Z,-2.04
2019-02-24T01:11:02.455Z,-2.01
2019-02-24T01:13:31.218Z,-2.06
2019-02-24T01:16:00.418Z,-2.16
2019-02-24T01:18:29.182Z,-2.24
2019-02-24T01:20:58.355Z,-2.19
2019-02-24T01:23:27.461Z,-2.23
2019-02-24T01:25:56.609Z,-2.13
2019-02-24T01:28:25.785Z,-2.21
2019-02-24T01:30:54.537Z,-2.33
2019-02-24T01:33:23.751Z,-2.47
2019-02-24T01:35:53.527Z,-2.38
2019-02-24T01:38:22.320Z,-2.37
2019-02-24T01:40:51.412Z,-2.32
2019-02-24T01:43:20.172Z,-2.42
2019-02-24T01:45:48.967Z,-2.59
2019-02-24T01:48:17.743Z,-2.47
2019-02-24T01:50:46.906Z,-2.36
2019-02-24T01:53:15.693Z,-2.19
2019-02-24T01:55:44.848Z,-2.06
2019-02-24T01:58:13.684Z,-1.93
2019-02-24T02:00:43.142Z,-1.97
2019-02-24T02:03:11.905Z,-2.17
2019-02-24T02:05:40.675Z,-2.18
2019-02-24T02:08:09.762Z,-2.11
2019-02-24T02:10:38.530Z,-2.15
2019-02-24T02:13:07.347Z,-2.08
2019-02-24T02:15:36.353Z,-2.13
2019-02-24T02:18:05.229Z,-2.18
2019-02-24T02:20:34.063Z,-2.16
2019-02-24T02:23:02.853Z,-2.06
2019-02-24T02:25:31.694Z,-1.99
2019-02-24T02:28:00.825Z,-2.00
2019-02-24T02:30:29.614Z,-2.13
2019-02-24T02:32:58.374Z,-2.07
2019-02-24T02:35:27.176Z,-2.11
2019-02-24T02:37:55.976Z,-2.00
2019-02-24T02:40:24.751Z,-2.02
2019-02-24T02:42:53.517Z,-1.86
2019-02-24T02:45:22.408Z,-1.94
2019-02-24T02:47:51.203Z,-1.94
2019-02-24T02:50:20.460Z,-2.09
2019-02-24T02:52:49.334Z,-2.15
2019-02-24T02:55:18.218Z,-2.11
2019-02-24T02:57:47.287Z,-2.34
2019-02-24T03:00:31.855Z,-2.56
2019-02-24T03:03:00.686Z,-2.52
2019-02-24T03:05:29.710Z,-2.54
2019-02-24T03:08:03.261Z,-2.57
2019-02-24T03:10:32.506Z,-2.29
2019-02-24T03:13:02.097Z,-2.29
2019-02-24T03:15:31.322Z,-2.32
2019-02-24T03:18:00.122Z,-2.29
2019-02-24T03:20:28.889Z,-2.33
2019-02-24T03:22:57.661Z,-2.31
2019-02-24T03:25:27.479Z,-2.45
2019-02-24T03:27:56.687Z,-2.58
2019-02-24T03:30:25.557Z,-2.70
2019-02-24T03:32:55.025Z,-2.72
2019-02-24T03:35:24.298Z,-2.72
2019-02-24T03:37:53.438Z,-2.62
2019-02-24T03:40:22.858Z,-2.48
2019-02-24T03:42:51.955Z,-2.37
2019-02-24T03:45:20.815Z,-2.28
2019-02-24T03:47:49.718Z,-2.13
2019-02-24T03:50:18.789Z,-1.94
2019-02-24T03:52:47.744Z,-1.75
2019-02-24T03:55:16.582Z,-1.69
2019-02-24T03:57:45.496Z,-1.70
2019-02-24T04:00:14.362Z,-1.52
2019-02-24T04:02:43.667Z,-1.46
2019-02-24T04:05:13.600Z,-1.45
2019-02-24T04:07:42.694Z,-1.45
2019-02-24T04:10:11.519Z,-1.44
2019-02-24T04:12:40.388Z,-1.44
2019-02-24T04:15:09.554Z,-1.68
2019-02-24T04:17:38.333Z,-1.92
2019-02-24T04:20:07.229Z,-2.15
2019-02-24T04:22:36.001Z,-2.24
2019-02-24T04:25:04.925Z,-2.23
2019-02-24T04:27:33.738Z,-2.36
2019-02-24T04:30:02.530Z,-2.46
2019-02-24T04:32:31.361Z,-2.39
2019-02-24T04:35:00.311Z,-2.24
2019-02-24T04:37:29.109Z,-2.23
2019-02-24T04:39:58.269Z,-2.22
2019-02-24T04:42:27.037Z,-2.21
2019-02-24T04:44:55.840Z,-2.39
2019-02-24T04:47:24.605Z,-2.63
2019-02-24T04:49:53.728Z,-2.84
2019-02-24T04:52:22.867Z,-3.10
2019-02-24T04:54:52.105Z,-2.91
2019-02-24T04:57:21.204Z,-2.68
2019-02-24T04:59:50.322Z,-2.69
2019-02-24T05:02:19.874Z,-2.79
2019-02-24T05:04:49.743Z,-2.92
2019-02-24T05:07:19.333Z,-3.06
2019-02-24T05:09:49.211Z,-2.75
2019-02-24T05:12:18.285Z,-2.61
2019-02-24T05:14:47.127Z,-2.42
2019-02-24T05:17:15.861Z,-2.41
2019-02-24T05:19:44.636Z,-2.27
2019-02-24T05:22:13.430Z,-2.27
2019-02-24T05:24:42.588Z,-2.37
2019-02-24T05:27:11.395Z,-2.79
2019-02-24T05:29:46.022Z,-2.64
2019-02-24T05:32:11.590Z,-2.61
2019-02-24T05:34:41.467Z,-2.68
2019-02-24T05:37:10.946Z,-2.92
2019-02-24T05:39:39.746Z,-3.05
2019-02-24T05:42:08.602Z,-3.23
2019-02-24T05:44:37.742Z,-3.41
2019-02-24T05:47:06.620Z,-3.42
2019-02-24T05:49:36.430Z,-3.58
2019-02-24T05:52:05.590Z,-3.47
2019-02-24T05:54:35.386Z,-3.07
2019-02-24T05:57:05.382Z,-3.09
2019-02-24T05:59:34.263Z,-3.34
2019-02-24T06:02:03.073Z,-3.34
2019-02-24T06:04:31.849Z,-3.06
2019-02-24T06:07:00.627Z,-3.09
2019-02-24T06:09:29.450Z,-3.29
2019-02-24T06:11:58.998Z,-3.17
2019-02-24T06:14:27.764Z,-3.14
2019-02-24T06:16:56.571Z,-3.21
2019-02-24T06:19:25.647Z,-3.21
2019-02-24T06:21:55.225Z,-3.11
2019-02-24T06:24:24.362Z,-3.01
2019-02-24T06:26:53.140Z,-2.99
2019-02-24T06:29:22.918Z,-3.17
2019-02-24T06:31:53.157Z,-3.17
2019-02-24T06:34:22.630Z,-3.04
2019-02-24T06:36:51.461Z,-3.04
2019-02-24T06:39:20.316Z,-2.94
2019-02-24T06:41:49.095Z,-2.97
2019-02-24T06:44:18.254Z,-2.94
2019-02-24T06:46:47.056Z,-2.80
2019-02-24T06:49:15.856Z,-2.80
2019-02-24T06:51:45.027Z,-2.66
2019-02-24T06:54:14.789Z,-2.62
2019-02-24T06:56:43.578Z,-2.55
2019-02-24T06:59:15.669Z,-2.46
2019-02-24T07:01:50.687Z,-2.27
2019-02-24T07:04:19.463Z,-2.12
2019-02-24T07:06:48.672Z,-2.04
2019-02-24T07:10:04.555Z,-1.86
2019-02-24T07:12:47.259Z,-1.58
2019-02-24T07:15:16.483Z,-1.36
2019-02-24T07:17:45.721Z,-1.21
2019-02-24T07:20:14.870Z,-1.13
2019-02-24T07:22:44.002Z,-0.97
2019-02-24T07:25:13.606Z,-0.87
2019-02-24T07:27:43.536Z,-0.87
2019-02-24T07:30:23.182Z,-0.78
2019-02-24T07:32:46.481Z,-0.53
2019-02-24T07:35:15.301Z,-0.31
2019-02-24T07:37:48.074Z,-0.20
2019-02-24T07:40:17.503Z,0.01
2019-02-24T07:42:46.322Z,0.18
2019-02-24T07:45:15.506Z,0.40
2019-02-24T07:47:44.268Z,0.48
2019-02-24T07:50:14.531Z,0.70
2019-02-24T07:52:43.593Z,0.68
2019-02-24T07:55:13.461Z,0.81
2019-02-24T07:57:42.938Z,0.91
2019-02-24T08:00:12.227Z,1.22
2019-02-24T08:02:40.989Z,1.49
2019-02-24T08:05:09.879Z,1.56
2019-02-24T08:07:39.029Z,1.77
2019-02-24T08:10:07.973Z,1.86
2019-02-24T08:12:36.790Z,1.91
2019-02-24T08:15:09.858Z,2.15
2019-02-24T08:17:38.810Z,2.40
2019-02-24T08:20:09.074Z,2.56
2019-02-24T08:22:41.032Z,2.77
2019-02-24T08:25:11.828Z,3.07
2019-02-24T08:27:43.749Z,3.43
2019-02-24T08:30:19.534Z,3.71
2019-02-24T08:32:49.710Z,3.96
2019-02-24T08:35:18.911Z,4.30
2019-02-24T08:37:48.072Z,4.69
2019-02-24T08:40:17.797Z,5.02
2019-02-24T08:42:47.401Z,5.35
2019-02-24T08:45:16.739Z,5.58
2019-02-24T08:47:46.252Z,5.86
2019-02-24T08:50:15.750Z,6.10
2019-02-24T08:52:45.299Z,6.18
2019-02-24T08:55:14.866Z,6.57
2019-02-24T08:57:44.351Z,6.71
2019-02-24T09:00:13.588Z,6.70
2019-02-24T09:02:42.388Z,6.78
2019-02-24T09:05:11.490Z,6.90
2019-02-24T09:07:40.660Z,7.00
2019-02-24T09:10:09.616Z,7.10
2019-02-24T09:12:38.720Z,7.51
2019-02-24T09:15:08.847Z,7.86
2019-02-24T09:17:37.965Z,8.25
2019-02-24T09:20:07.763Z,8.49
2019-02-24T09:22:36.552Z,8.51
2019-02-24T09:25:05.578Z,8.60
2019-02-24T09:27:34.421Z,8.61
2019-02-24T09:30:03.738Z,8.77
2019-02-24T09:32:32.574Z,8.73
2019-02-24T09:35:01.351Z,8.79
2019-02-24T09:37:30.121Z,9.09
2019-02-24T09:39:59.407Z,9.26
2019-02-24T09:42:28.592Z,9.37
2019-02-24T09:44:57.386Z,9.23
2019-02-24T09:47:26.142Z,9.33
2019-02-24T09:49:55.295Z,9.35
2019-02-24T09:52:24.112Z,9.40
2019-02-24T09:54:52.868Z,9.69
2019-02-24T09:57:21.648Z,10.15
2019-02-24T09:59:51.546Z,10.86
2019-02-24T10:02:38.767Z,11.36
2019-02-24T10:05:07.737Z,12.02
2019-02-24T10:07:36.880Z,12.42
2019-02-24T10:10:08.976Z,13.12
2019-02-24T10:12:37.927Z,13.57
2019-02-24T10:15:07.111Z,14.93
2019-02-24T10:17:35.991Z,15.55
2019-02-24T10:20:05.013Z,15.98
2019-02-24T10:22:33.840Z,17.12
2019-02-24T10:25:02.744Z,17.42
2019-02-24T10:27:31.591Z,18.25
2019-02-24T10:30:00.377Z,17.30
2019-02-24T10:32:29.605Z,17.48
2019-02-24T10:34:58.483Z,17.01
2019-02-24T10:37:27.287Z,18.68
2019-02-24T10:39:56.171Z,19.18
2019-02-24T10:42:24.948Z,19.95
2019-02-24T10:44:53.714Z,20.47
2019-02-24T10:47:22.528Z,21.12
2019-02-24T10:49:51.313Z,22.36
2019-02-24T10:52:20.101Z,23.24
2019-02-24T10:54:48.979Z,22.90
2019-02-24T10:57:17.744Z,23.57
2019-02-24T10:59:46.517Z,22.58
2019-02-24T11:02:15.312Z,21.67
2019-02-24T11:04:44.186Z,22.28
2019-02-24T11:07:12.955Z,22.59
2019-02-24T11:09:41.719Z,22.56
2019-02-24T11:12:10.522Z,22.99
2019-02-24T11:14:39.286Z,24.13
2019-02-24T11:17:08.401Z,25.26
2019-02-24T11:19:37.236Z,26.08
2019-02-24T11:22:06.177Z,25.18
2019-02-24T11:24:35.015Z,25.86
2019-02-24T11:27:03.808Z,26.75
2019-02-24T11:29:33.437Z,25.46
2019-02-24T11:32:02.331Z,26.61
2019-02-24T11:34:31.125Z,24.23
2019-02-24T11:36:59.937Z,24.76
2019-02-24T11:39:28.785Z,24.42
2019-02-24T11:41:57.943Z,25.69
2019-02-24T11:44:28.490Z,25.84
2019-02-24T11:46:57.426Z,27.21
2019-02-24T11:49:26.789Z,25.30
2019-02-24T11:52:03.680Z,26.06
2019-02-24T11:54:27.435Z,26.44
2019-02-24T11:56:56.385Z,27.64
2019-02-24T11:59:25.833Z,28.76
2019-02-24T12:01:58.102Z,29.41
2019-02-24T12:04:29.482Z,29.41
2019-02-24T12:06:58.357Z,30.41
2019-02-24T12:09:27.519Z,31.46
2019-02-24T12:12:11.630Z,31.98
2019-02-24T12:14:41.615Z,32.09
2019-02-24T12:17:10.381Z,29.57
2019-02-24T12:19:39.248Z,30.32
2019-02-24T12:22:08.461Z,29.33
2019-02-24T12:24:37.765Z,30.79
2019-02-24T12:27:06.634Z,29.21
2019-02-24T12:29:35.395Z,29.89
2019-02-24T12:32:06.156Z,28.35
2019-02-24T12:34:35.167Z,25.99
2019-02-24T12:37:03.956Z,25.11
2019-02-24T12:39:33.162Z,26.40
2019-02-24T12:42:01.973Z,27.12
2019-02-24T12:44:30.744Z,26.03
2019-02-24T12:47:00.506Z,26.15
2019-02-24T12:49:29.928Z,25.62
2019-02-24T12:51:59.472Z,26.07
2019-02-24T12:54:29.016Z,26.53
2019-02-24T12:56:57.805Z,26.51
2019-02-24T12:59:26.642Z,27.48
2019-02-24T13:01:55.577Z,28.31
2019-02-24T13:04:24.868Z,28.70
2019-02-24T13:06:57.559Z,29.37
2019-02-24T13:09:29.151Z,30.27
2019-02-24T13:11:58.173Z,30.08
2019-02-24T13:14:27.082Z,29.76
2019-02-24T13:16:56.111Z,29.65
2019-02-24T13:19:24.968Z,29.18
2019-02-24T13:21:54.186Z,28.89
2019-02-24T13:24:23.257Z,28.02
2019-02-24T13:26:52.089Z,27.88
2019-02-24T13:29:21.047Z,29.69
2019-02-24T13:31:50.032Z,27.66
2019-02-24T13:34:18.955Z,27.34
2019-02-24T13:36:47.883Z,26.48
2019-02-24T13:39:17.049Z,26.76
2019-02-24T13:41:45.836Z,26.78
2019-02-24T13:44:14.630Z,27.32
2019-02-24T13:46:43.788Z,27.73
2019-02-24T13:49:12.937Z,28.02
2019-02-24T13:51:41.728Z,28.12
2019-02-24T13:54:10.489Z,28.40
2019-02-24T13:56:39.285Z,28.34
2019-02-24T13:59:08.043Z,27.66
2019-02-24T14:01:36.798Z,26.99
2019-02-24T14:04:05.599Z,27.02
2019-02-24T14:06:34.355Z,26.95
2019-02-24T14:09:03.135Z,27.74
2019-02-24T14:11:31.928Z,28.12
2019-02-24T14:14:00.692Z,28.78
2019-02-24T14:16:29.445Z,28.35
2019-02-24T14:18:58.247Z,28.09
2019-02-24T14:21:27.766Z,27.88
2019-02-24T14:23:56.917Z,28.99
2019-02-24T14:26:25.867Z,29.61
2019-02-24T14:28:54.630Z,30.81
2019-02-24T14:31:23.383Z,31.36
2019-02-24T14:33:52.706Z,29.41
2019-02-24T14:36:21.569Z,27.80
2019-02-24T14:38:50.540Z,28.49
2019-02-24T14:41:21.955Z,29.32
2019-02-24T14:43:51.506Z,28.34
2019-02-24T14:46:20.381Z,28.09
2019-02-24T14:48:49.192Z,28.27
2019-02-24T14:51:18.302Z,28.57
2019-02-24T14:53:47.064Z,26.46
2019-02-24T14:56:15.866Z,24.49
2019-02-24T14:58:44.639Z,24.69
2019-02-24T15:01:13.406Z,26.30
2019-02-24T15:03:42.251Z,27.63
2019-02-24T15:06:11.011Z,26.67
2019-02-24T15:08:39.778Z,27.83
2019-02-24T15:11:08.591Z,28.04
2019-02-24T15:13:37.360Z,27.30
2019-02-24T15:16:06.228Z,27.59
2019-02-24T15:18:34.987Z,28.50
2019-02-24T15:21:03.893Z,28.90
2019-02-24T15:23:32.779Z,28.21
2019-02-24T15:26:02.606Z,27.64
2019-02-24T15:28:31.775Z,27.38
2019-02-24T15:31:00.628Z,25.04
2019-02-24T15:33:29.844Z,26.61
2019-02-24T15:35:59.657Z,27.27
2019-02-24T15:38:29.148Z,27.52
2019-02-24T15:40:58.708Z,26.94
2019-02-24T15:43:27.714Z,27.04
2019-02-24T15:45:56.495Z,24.90
2019-02-24T15:48:25.267Z,21.53
2019-02-24T15:50:54.059Z,21.16
2019-02-24T15:53:22.908Z,22.13
2019-02-24T15:55:52.115Z,21.10
2019-02-24T15:58:20.904Z,19.07
2019-02-24T16:00:49.675Z,17.44
2019-02-24T16:03:18.527Z,16.59
2019-02-24T16:05:47.342Z,16.29
2019-02-24T16:08:16.111Z,14.74
2019-02-24T16:10:44.950Z,13.87
2019-02-24T16:13:16.984Z,12.10
2019-02-24T16:15:44.316Z,10.57
2019-02-24T16:18:13.091Z,10.13
2019-02-24T16:20:42.241Z,9.96
2019-02-24T16:23:10.999Z,9.74
2019-02-24T16:25:39.861Z,9.47
2019-02-24T16:28:08.665Z,8.94
2019-02-24T16:30:37.573Z,8.78
2019-02-24T16:33:10.619Z,8.70
2019-02-24T16:35:37.281Z,8.87
2019-02-24T16:38:06.173Z,8.94
2019-02-24T16:40:35.016Z,8.80
2019-02-24T16:43:03.866Z,8.53
2019-02-24T16:45:32.745Z,8.36
2019-02-24T16:48:01.537Z,8.21
2019-02-24T16:50:30.382Z,8.10
2019-02-24T16:52:59.182Z,7.91
2019-02-24T16:55:27.975Z,7.68
2019-02-24T16:57:56.771Z,7.71
2019-02-24T17:00:25.700Z,7.58
2019-02-24T17:02:54.571Z,7.43
2019-02-24T17:05:23.398Z,7.28
2019-02-24T17:07:52.309Z,7.05
2019-02-24T17:10:21.264Z,6.99
2019-02-24T17:12:50.084Z,6.93
2019-02-24T17:15:19.011Z,6.78
2019-02-24T17:17:47.836Z,6.57
2019-02-24T17:20:20.539Z,6.26
2019-02-24T17:22:49.310Z,5.98
2019-02-24T17:25:18.232Z,5.84
2019-02-24T17:27:47.020Z,5.72
2019-02-24T17:30:16.314Z,5.72
2019-02-24T17:32:45.722Z,5.72
2019-02-24T17:35:14.805Z,5.57
2019-02-24T17:37:44.058Z,5.41
2019-02-24T17:40:13.828Z,5.40
2019-02-24T17:42:42.746Z,5.36
2019-02-24T17:45:12.882Z,5.29
2019-02-24T17:47:42.893Z,5.17
2019-02-24T17:50:12.969Z,4.99
2019-02-24T17:52:42.785Z,5.01
2019-02-24T17:55:13.536Z,4.87
2019-02-24T17:57:42.883Z,4.75
2019-02-24T18:00:20.463Z,4.76
2019-02-24T18:02:49.241Z,4.86
2019-02-24T18:05:18.507Z,4.85
2019-02-24T18:07:47.348Z,4.87
2019-02-24T18:10:16.729Z,4.77
2019-02-24T18:12:46.565Z,4.54
2019-02-24T18:15:16.060Z,4.18
2019-02-24T18:17:45.656Z,3.94
2019-02-24T18:20:15.691Z,3.51
2019-02-24T18:22:45.577Z,3.22
2019-02-24T18:25:15.254Z,3.33
2019-02-24T18:27:44.516Z,3.72
2019-02-24T18:30:17.027Z,3.74
2019-02-24T18:32:45.891Z,3.44
2019-02-24T18:35:15.701Z,3.38
2019-02-24T18:37:45.317Z,3.62
2019-02-24T18:40:14.209Z,3.65
2019-02-24T18:42:43.424Z,3.83
2019-02-24T18:45:13.019Z,3.83
2019-02-24T18:47:42.290Z,3.62
2019-02-24T18:50:11.659Z,3.26
2019-02-24T18:52:40.893Z,2.89
2019-02-24T18:55:10.049Z,2.87
2019-02-24T18:57:39.308Z,3.17
2019-02-24T19:00:11.515Z,3.22
2019-02-24T19:02:40.722Z,3.15
2019-02-24T19:05:10.478Z,3.16
2019-02-24T19:07:39.899Z,3.38
2019-02-24T19:10:11.052Z,3.48
2019-02-24T19:12:39.882Z,3.38
2019-02-24T19:15:11.460Z,3.32
2019-02-24T19:17:40.738Z,3.43
2019-02-24T19:20:10.778Z,3.63
2019-02-24T19:22:40.683Z,3.59
2019-02-24T19:25:11.006Z,3.81
2019-02-24T19:27:40.466Z,3.77
2019-02-24T19:30:11.739Z,3.52
2019-02-24T19:32:41.410Z,3.21
2019-02-24T19:35:12.018Z,2.70
2019-02-24T19:37:40.906Z,2.21
2019-02-24T19:40:11.553Z,1.97
2019-02-24T19:42:40.463Z,2.05
2019-02-24T19:45:12.869Z,1.82
2019-02-24T19:47:41.709Z,1.72
2019-02-24T19:50:12.645Z,1.73
2019-02-24T19:53:12.509Z,1.96
2019-02-24T19:55:41.359Z,2.09
2019-02-24T19:58:10.572Z,2.29
2019-02-24T20:00:39.515Z,2.38
2019-02-24T20:03:08.649Z,2.22
2019-02-24T20:05:37.491Z,2.00
2019-02-24T20:08:06.452Z,1.74
2019-02-24T20:10:35.221Z,1.67
2019-02-24T20:13:04.166Z,1.76
2019-02-24T20:15:32.930Z,1.95
2019-02-24T20:18:01.824Z,2.02
2019-02-24T20:20:30.676Z,1.95
2019-02-24T20:22:59.466Z,2.01
2019-02-24T20:25:28.275Z,2.23
2019-02-24T20:27:57.124Z,2.18
2019-02-24T20:30:27.095Z,1.89
2019-02-24T20:32:56.282Z,1.61
2019-02-24T20:35:25.399Z,1.46
2019-02-24T20:37:54.344Z,1.20
2019-02-24T20:40:23.286Z,1.02
2019-02-24T20:42:52.050Z,0.97
2019-02-24T20:45:20.860Z,0.79
2019-02-24T20:47:49.875Z,0.58
2019-02-24T20:50:19.844Z,0.83
2019-02-24T20:52:49.699Z,1.07
2019-02-24T20:55:19.008Z,1.29
2019-02-24T20:57:48.308Z,1.45
2019-02-24T21:00:24.138Z,1.29
2019-02-24T21:02:53.529Z,1.03
2019-02-24T21:05:22.370Z,0.76
2019-02-24T21:07:51.858Z,0.97
2019-02-24T21:10:21.063Z,1.28
2019-02-24T21:12:50.249Z,1.36
2019-02-24T21:15:19.670Z,1.41
2019-02-24T21:17:48.455Z,1.45
2019-02-24T21:20:20.084Z,1.58
2019-02-24T21:22:50.621Z,1.59
2019-02-24T21:25:19.639Z,1.51
2019-02-24T21:27:49.250Z,1.29
2019-02-24T21:30:18.360Z,1.08
2019-02-24T21:32:47.883Z,1.07
2019-02-24T21:35:17.542Z,1.12
2019-02-24T21:37:46.898Z,1.22
2019-02-24T21:40:16.651Z,1.26
2019-02-24T21:42:45.972Z,1.17
2019-02-24T21:45:17.355Z,1.10
2019-02-24T21:47:46.580Z,1.23
2019-02-24T21:50:16.695Z,1.29
2019-02-24T21:52:45.930Z,1.33
2019-02-24T21:55:15.270Z,1.42
2019-02-24T21:57:44.952Z,1.37
2019-02-24T22:00:18.225Z,1.38
2019-02-24T22:02:47.081Z,1.29
2019-02-24T22:05:15.901Z,1.23
2019-02-24T22:07:45.011Z,1.37
2019-02-24T22:10:14.292Z,1.49
2019-02-24T22:12:43.097Z,1.57
2019-02-24T22:15:14.836Z,1.52
2019-02-24T22:17:44.037Z,1.55
2019-02-24T22:20:14.815Z,1.71
2019-02-24T22:22:43.926Z,1.68
2019-02-24T22:25:13.272Z,1.47
2019-02-24T22:27:42.138Z,1.19
2019-02-24T22:30:13.386Z,0.95
2019-02-24T22:32:42.642Z,0.85
2019-02-24T22:35:11.501Z,0.73
2019-02-24T22:37:41.303Z,0.83
2019-02-24T22:40:11.787Z,0.93
2019-02-24T22:42:40.738Z,0.97
2019-02-24T22:45:11.882Z,0.84
2019-02-24T22:47:40.702Z,0.76
2019-02-24T22:50:09.964Z,0.74
2019-02-24T22:52:38.879Z,0.73
2019-02-24T22:55:08.010Z,0.72
2019-02-24T22:57:36.916Z,0.77
2019-02-24T23:00:15.925Z,0.85
2019-02-24T23:02:44.852Z,1.05
2019-02-24T23:05:13.692Z,1.14
2019-02-24T23:07:42.643Z,1.02
2019-02-24T23:10:12.130Z,0.93
2019-02-24T23:12:40.972Z,0.84
2019-02-24T23:15:09.937Z,0.79
2019-02-24T23:17:38.700Z,0.81
2019-02-24T23:20:07.726Z,0.89
2019-02-24T23:22:36.570Z,0.84
2019-02-24T23:25:05.945Z,0.70
2019-02-24T23:27:34.725Z,0.59
2019-02-24T23:30:04.750Z,0.45
2019-02-24T23:32:33.567Z,0.38
2019-02-24T23:35:02.340Z,0.08
2019-02-24T23:37:31.113Z,-0.01
2019-02-24T23:39:59.945Z,-0.02
2019-02-24T23:42:28.814Z,-0.06
2019-02-24T23:44:57.625Z,-0.08
2019-02-24T23:47:26.393Z,-0.25
2019-02-24T23:49:55.149Z,-0.18
2019-02-24T23:52:23.965Z,-0.24
2019-02-24T23:54:52.735Z,-0.57
2019-02-24T23:57:21.529Z,-0.52
2019-02-24T23:59:50.327Z,-0.52
